sensor_id;sensor_type;location;lat;lon;timestamp;temperature;humidity
792;DHT22;379;49.022;12.148;2023-01-19T00:01:31;0.00;99.90
792;DHT22;379;49.022;12.148;2023-01-19T00:03:58;-0.10;99.90
792;DHT22;379;49.022;12.148;2023-01-19T00:06:25;-0.10;99.90
792;DHT22;379;49.022;12.148;2023-01-19T00:08:52;-0.10;99.90
792;DHT22;379;49.022;12.148;2023-01-19T00:11:20;-0.10;99.90
792;DHT22;379;49.022;12.148;2023-01-19T00:13:47;-0.10;99.90
792;DHT22;379;49.022;12.148;2023-01-19T00:16:15;-0.10;99.90
792;DHT22;379;49.022;12.148;2023-01-19T00:18:43;-0.10;99.90
792;DHT22;379;49.022;12.148;2023-01-19T00:21:10;-0.20;99.90
792;DHT22;379;49.022;12.148;2023-01-19T00:23:36;-0.20;99.90
792;DHT22;379;49.022;12.148;2023-01-19T00:26:03;-0.30;99.90
792;DHT22;379;49.022;12.148;2023-01-19T00:28:32;-0.30;99.90
792;DHT22;379;49.022;12.148;2023-01-19T00:30:58;-0.40;99.90
792;DHT22;379;49.022;12.148;2023-01-19T00:33:25;-0.50;99.90
792;DHT22;379;49.022;12.148;2023-01-19T00:35:52;-0.60;99.90
792;DHT22;379;49.022;12.148;2023-01-19T00:38:20;-0.50;99.90
792;DHT22;379;49.022;12.148;2023-01-19T00:40:47;-0.50;99.90
792;DHT22;379;49.022;12.148;2023-01-19T00:43:14;-0.50;99.90
792;DHT22;379;49.022;12.148;2023-01-19T00:45:42;-0.60;99.90
792;DHT22;379;49.022;12.148;2023-01-19T00:48:10;-0.60;99.90
792;DHT22;379;49.022;12.148;2023-01-19T00:50:37;-0.70;99.90
792;DHT22;379;49.022;12.148;2023-01-19T00:53:04;-0.70;99.90
792;DHT22;379;49.022;12.148;2023-01-19T00:55:31;-0.70;99.90
792;DHT22;379;49.022;12.148;2023-01-19T00:57:58;-0.70;99.90
792;DHT22;379;49.022;12.148;2023-01-19T01:00:25;-0.60;99.90
792;DHT22;379;49.022;12.148;2023-01-19T01:02:53;-0.50;99.90
792;DHT22;379;49.022;12.148;2023-01-19T01:05:20;-0.40;99.90
792;DHT22;379;49.022;12.148;2023-01-19T01:07:47;-0.40;99.90
792;DHT22;379;49.022;12.148;2023-01-19T01:10:17;-0.40;99.90
792;DHT22;379;49.022;12.148;2023-01-19T01:12:44;-0.30;99.90
792;DHT22;379;49.022;12.148;2023-01-19T01:15:13;-0.30;99.90
792;DHT22;379;49.022;12.148;2023-01-19T01:17:40;-0.20;99.90
792;DHT22;379;49.022;12.148;2023-01-19T01:20:14;-0.20;99.90
792;DHT22;379;49.022;12.148;2023-01-19T01:22:43;-0.20;99.90
792;DHT22;379;49.022;12.148;2023-01-19T01:25:11;-0.20;99.90
792;DHT22;379;49.022;12.148;2023-01-19T01:27:38;-0.20;99.90
792;DHT22;379;49.022;12.148;2023-01-19T01:30:06;-0.20;99.90
792;DHT22;379;49.022;12.148;2023-01-19T01:32:33;-0.20;99.90
792;DHT22;379;49.022;12.148;2023-01-19T01:34:59;-0.20;99.90
792;DHT22;379;49.022;12.148;2023-01-19T01:37:28;-0.20;99.90
792;DHT22;379;49.022;12.148;2023-01-19T01:39:54;-0.20;99.90
792;DHT22;379;49.022;12.148;2023-01-19T01:42:26;-0.20;99.90
792;DHT22;379;49.022;12.148;2023-01-19T01:44:54;-0.20;99.90
792;DHT22;379;49.022;12.148;2023-01-19T01:47:26;-0.20;99.90
792;DHT22;379;49.022;12.148;2023-01-19T01:50:01;-0.20;99.90
792;DHT22;379;49.022;12.148;2023-01-19T01:52:31;-0.20;99.90
792;DHT22;379;49.022;12.148;2023-01-19T01:54:59;-0.20;99.90
792;DHT22;379;49.022;12.148;2023-01-19T01:57:29;-0.20;99.90
792;DHT22;379;49.022;12.148;2023-01-19T01:59:56;-0.20;99.90
792;DHT22;379;49.022;12.148;2023-01-19T02:02:26;-0.20;99.90
792;DHT22;379;49.022;12.148;2023-01-19T02:05:15;-0.20;99.90
792;DHT22;379;49.022;12.148;2023-01-19T02:07:46;-0.20;99.90
792;DHT22;379;49.022;12.148;2023-01-19T02:10:32;-0.20;99.90
792;DHT22;379;49.022;12.148;2023-01-19T02:13:17;-0.30;99.90
792;DHT22;379;49.022;12.148;2023-01-19T02:15:48;-0.30;99.90
792;DHT22;379;49.022;12.148;2023-01-19T02:18:16;-0.30;99.90
792;DHT22;379;49.022;12.148;2023-01-19T02:20:48;-0.30;99.90
792;DHT22;379;49.022;12.148;2023-01-19T02:23:30;-0.30;99.90
792;DHT22;379;49.022;12.148;2023-01-19T02:25:59;-0.30;99.90
792;DHT22;379;49.022;12.148;2023-01-19T02:28:27;-0.30;99.90
792;DHT22;379;49.022;12.148;2023-01-19T02:37:39;-0.30;99.90
792;DHT22;379;49.022;12.148;2023-01-19T02:40:10;-0.40;99.90
792;DHT22;379;49.022;12.148;2023-01-19T02:42:40;-0.40;99.90
792;DHT22;379;49.022;12.148;2023-01-19T02:45:10;-0.40;99.90
792;DHT22;379;49.022;12.148;2023-01-19T02:47:39;-0.40;99.90
792;DHT22;379;49.022;12.148;2023-01-19T02:50:27;-0.40;99.90
792;DHT22;379;49.022;12.148;2023-01-19T02:53:07;-0.40;99.90
792;DHT22;379;49.022;12.148;2023-01-19T02:55:39;-0.40;99.90
792;DHT22;379;49.022;12.148;2023-01-19T02:58:13;-0.40;99.90
792;DHT22;379;49.022;12.148;2023-01-19T03:00:47;-0.40;99.90
792;DHT22;379;49.022;12.148;2023-01-19T03:03:24;-0.40;99.90
792;DHT22;379;49.022;12.148;2023-01-19T03:06:02;-0.30;99.90
792;DHT22;379;49.022;12.148;2023-01-19T03:08:38;-0.30;99.90
792;DHT22;379;49.022;12.148;2023-01-19T03:11:10;-0.40;99.90
792;DHT22;379;49.022;12.148;2023-01-19T03:13:43;-0.40;99.90
792;DHT22;379;49.022;12.148;2023-01-19T03:16:16;-0.40;99.90
792;DHT22;379;49.022;12.148;2023-01-19T03:18:50;-0.40;99.90
792;DHT22;379;49.022;12.148;2023-01-19T03:21:18;-0.30;99.90
792;DHT22;379;49.022;12.148;2023-01-19T03:23:49;-0.40;99.90
792;DHT22;379;49.022;12.148;2023-01-19T03:26:21;-0.40;99.90
792;DHT22;379;49.022;12.148;2023-01-19T03:28:50;-0.40;99.90
792;DHT22;379;49.022;12.148;2023-01-19T03:31:21;-0.40;99.90
792;DHT22;379;49.022;12.148;2023-01-19T03:33:54;-0.40;99.90
792;DHT22;379;49.022;12.148;2023-01-19T03:36:25;-0.40;99.90
792;DHT22;379;49.022;12.148;2023-01-19T03:38:55;-0.40;99.90
792;DHT22;379;49.022;12.148;2023-01-19T03:41:24;-0.50;99.90
792;DHT22;379;49.022;12.148;2023-01-19T03:43:52;-0.50;99.90
792;DHT22;379;49.022;12.148;2023-01-19T03:46:22;-0.60;99.90
792;DHT22;379;49.022;12.148;2023-01-19T03:48:50;-0.60;99.90
792;DHT22;379;49.022;12.148;2023-01-19T03:51:18;-0.70;99.90
792;DHT22;379;49.022;12.148;2023-01-19T03:53:45;-0.70;99.90
792;DHT22;379;49.022;12.148;2023-01-19T03:56:18;-0.70;99.90
792;DHT22;379;49.022;12.148;2023-01-19T03:58:46;-0.70;99.90
792;DHT22;379;49.022;12.148;2023-01-19T04:01:14;-0.70;99.90
792;DHT22;379;49.022;12.148;2023-01-19T04:03:41;-0.70;99.90
792;DHT22;379;49.022;12.148;2023-01-19T04:06:09;-0.70;99.90
792;DHT22;379;49.022;12.148;2023-01-19T04:08:36;-0.80;99.90
792;DHT22;379;49.022;12.148;2023-01-19T04:11:03;-0.80;99.90
792;DHT22;379;49.022;12.148;2023-01-19T04:13:29;-0.80;99.90
792;DHT22;379;49.022;12.148;2023-01-19T04:16:00;-0.80;99.90
792;DHT22;379;49.022;12.148;2023-01-19T04:18:27;-0.90;99.90
792;DHT22;379;49.022;12.148;2023-01-19T04:20:54;-1.00;99.90
792;DHT22;379;49.022;12.148;2023-01-19T04:23:20;-1.00;99.90
792;DHT22;379;49.022;12.148;2023-01-19T04:25:47;-1.00;99.90
792;DHT22;379;49.022;12.148;2023-01-19T04:28:14;-1.10;99.90
792;DHT22;379;49.022;12.148;2023-01-19T04:30:41;-1.10;99.90
792;DHT22;379;49.022;12.148;2023-01-19T04:33:09;-1.20;99.90
792;DHT22;379;49.022;12.148;2023-01-19T04:35:35;-1.30;99.90
792;DHT22;379;49.022;12.148;2023-01-19T04:38:02;-1.30;99.90
792;DHT22;379;49.022;12.148;2023-01-19T04:40:29;-1.40;99.90
792;DHT22;379;49.022;12.148;2023-01-19T04:42:56;-1.50;99.90
792;DHT22;379;49.022;12.148;2023-01-19T04:45:23;-1.60;99.90
792;DHT22;379;49.022;12.148;2023-01-19T04:47:50;-1.70;99.90
792;DHT22;379;49.022;12.148;2023-01-19T04:50:18;-1.80;99.90
792;DHT22;379;49.022;12.148;2023-01-19T04:52:45;-1.80;99.90
792;DHT22;379;49.022;12.148;2023-01-19T04:55:11;-1.80;99.90
792;DHT22;379;49.022;12.148;2023-01-19T04:57:38;-1.90;99.90
792;DHT22;379;49.022;12.148;2023-01-19T05:00:07;-1.90;99.90
792;DHT22;379;49.022;12.148;2023-01-19T05:02:34;-2.00;99.90
792;DHT22;379;49.022;12.148;2023-01-19T05:05:01;-2.10;99.90
792;DHT22;379;49.022;12.148;2023-01-19T05:07:29;-2.10;99.90
792;DHT22;379;49.022;12.148;2023-01-19T05:09:56;-2.20;99.90
792;DHT22;379;49.022;12.148;2023-01-19T05:12:23;-2.30;99.90
792;DHT22;379;49.022;12.148;2023-01-19T05:14:49;-2.40;99.90
792;DHT22;379;49.022;12.148;2023-01-19T05:17:16;-2.40;99.90
792;DHT22;379;49.022;12.148;2023-01-19T05:19:43;-2.50;99.90
792;DHT22;379;49.022;12.148;2023-01-19T05:22:09;-2.60;99.90
792;DHT22;379;49.022;12.148;2023-01-19T05:24:38;-2.60;99.90
792;DHT22;379;49.022;12.148;2023-01-19T05:27:04;-2.70;99.90
792;DHT22;379;49.022;12.148;2023-01-19T05:29:31;-2.80;99.90
792;DHT22;379;49.022;12.148;2023-01-19T05:31:58;-2.80;99.90
792;DHT22;379;49.022;12.148;2023-01-19T05:34:25;-2.80;99.90
792;DHT22;379;49.022;12.148;2023-01-19T05:36:52;-2.80;99.90
792;DHT22;379;49.022;12.148;2023-01-19T05:39:19;-2.90;99.90
792;DHT22;379;49.022;12.148;2023-01-19T05:41:47;-2.90;99.90
792;DHT22;379;49.022;12.148;2023-01-19T05:44:14;-2.90;99.90
792;DHT22;379;49.022;12.148;2023-01-19T05:46:41;-2.90;99.90
792;DHT22;379;49.022;12.148;2023-01-19T05:49:08;-2.90;99.90
792;DHT22;379;49.022;12.148;2023-01-19T05:51:35;-2.90;99.90
792;DHT22;379;49.022;12.148;2023-01-19T05:54:03;-3.00;99.90
792;DHT22;379;49.022;12.148;2023-01-19T05:56:30;-3.00;99.90
792;DHT22;379;49.022;12.148;2023-01-19T05:58:59;-3.00;99.90
792;DHT22;379;49.022;12.148;2023-01-19T06:01:26;-2.90;99.90
792;DHT22;379;49.022;12.148;2023-01-19T06:03:52;-3.00;99.90
792;DHT22;379;49.022;12.148;2023-01-19T06:06:19;-3.10;99.90
792;DHT22;379;49.022;12.148;2023-01-19T06:08:46;-3.10;99.90
792;DHT22;379;49.022;12.148;2023-01-19T06:11:13;-3.20;99.90
792;DHT22;379;49.022;12.148;2023-01-19T06:13:40;-3.30;99.90
792;DHT22;379;49.022;12.148;2023-01-19T06:16:08;-3.30;99.90
792;DHT22;379;49.022;12.148;2023-01-19T06:18:36;-3.30;99.90
792;DHT22;379;49.022;12.148;2023-01-19T06:21:04;-3.30;99.90
792;DHT22;379;49.022;12.148;2023-01-19T06:23:32;-3.40;99.90
792;DHT22;379;49.022;12.148;2023-01-19T06:25:59;-3.40;99.90
792;DHT22;379;49.022;12.148;2023-01-19T06:28:26;-3.40;99.90
792;DHT22;379;49.022;12.148;2023-01-19T06:30:54;-3.40;99.90
792;DHT22;379;49.022;12.148;2023-01-19T06:33:24;-3.40;99.90
792;DHT22;379;49.022;12.148;2023-01-19T06:35:52;-3.50;99.90
792;DHT22;379;49.022;12.148;2023-01-19T06:38:19;-3.50;99.90
792;DHT22;379;49.022;12.148;2023-01-19T06:40:51;-3.60;99.90
792;DHT22;379;49.022;12.148;2023-01-19T06:43:19;-3.60;99.90
792;DHT22;379;49.022;12.148;2023-01-19T06:45:46;-3.80;99.90
792;DHT22;379;49.022;12.148;2023-01-19T06:48:13;-4.00;99.90
792;DHT22;379;49.022;12.148;2023-01-19T06:50:43;-4.20;99.90
792;DHT22;379;49.022;12.148;2023-01-19T06:53:10;-4.20;99.90
792;DHT22;379;49.022;12.148;2023-01-19T06:55:37;-4.30;99.90
792;DHT22;379;49.022;12.148;2023-01-19T06:58:04;-4.40;99.90
792;DHT22;379;49.022;12.148;2023-01-19T07:00:31;-4.40;99.90
792;DHT22;379;49.022;12.148;2023-01-19T07:02:57;-4.40;99.90
792;DHT22;379;49.022;12.148;2023-01-19T07:05:24;-4.40;99.90
792;DHT22;379;49.022;12.148;2023-01-19T07:07:53;-4.40;99.90
792;DHT22;379;49.022;12.148;2023-01-19T07:10:20;-4.30;99.90
792;DHT22;379;49.022;12.148;2023-01-19T07:12:47;-4.30;99.90
792;DHT22;379;49.022;12.148;2023-01-19T07:15:14;-4.20;99.90
792;DHT22;379;49.022;12.148;2023-01-19T07:17:42;-4.20;99.90
792;DHT22;379;49.022;12.148;2023-01-19T07:20:10;-4.00;99.90
792;DHT22;379;49.022;12.148;2023-01-19T07:22:38;-3.90;99.90
792;DHT22;379;49.022;12.148;2023-01-19T07:25:07;-3.60;99.90
792;DHT22;379;49.022;12.148;2023-01-19T07:27:34;-3.30;99.90
792;DHT22;379;49.022;12.148;2023-01-19T07:30:01;-3.10;99.90
792;DHT22;379;49.022;12.148;2023-01-19T07:32:29;-2.90;99.90
792;DHT22;379;49.022;12.148;2023-01-19T07:34:55;-2.80;99.90
792;DHT22;379;49.022;12.148;2023-01-19T07:37:22;-2.70;99.90
792;DHT22;379;49.022;12.148;2023-01-19T07:39:49;-2.60;99.90
792;DHT22;379;49.022;12.148;2023-01-19T07:42:17;-2.50;99.90
792;DHT22;379;49.022;12.148;2023-01-19T07:44:44;-2.40;99.90
792;DHT22;379;49.022;12.148;2023-01-19T07:47:10;-2.30;99.90
792;DHT22;379;49.022;12.148;2023-01-19T07:49:37;-2.10;99.90
792;DHT22;379;49.022;12.148;2023-01-19T07:52:04;-2.00;99.90
792;DHT22;379;49.022;12.148;2023-01-19T07:54:31;-1.80;99.90
792;DHT22;379;49.022;12.148;2023-01-19T07:56:58;-1.70;99.90
792;DHT22;379;49.022;12.148;2023-01-19T07:59:26;-1.70;99.90
792;DHT22;379;49.022;12.148;2023-01-19T08:01:54;-1.60;99.90
792;DHT22;379;49.022;12.148;2023-01-19T08:04:22;-1.60;99.90
792;DHT22;379;49.022;12.148;2023-01-19T08:06:49;-1.60;99.90
792;DHT22;379;49.022;12.148;2023-01-19T08:09:15;-1.50;99.90
792;DHT22;379;49.022;12.148;2023-01-19T08:11:43;-1.50;99.90
792;DHT22;379;49.022;12.148;2023-01-19T08:14:10;-1.40;99.90
792;DHT22;379;49.022;12.148;2023-01-19T08:16:38;-1.30;99.90
792;DHT22;379;49.022;12.148;2023-01-19T08:19:05;-1.30;99.90
792;DHT22;379;49.022;12.148;2023-01-19T08:21:31;-1.30;99.90
792;DHT22;379;49.022;12.148;2023-01-19T08:24:00;-1.30;99.90
792;DHT22;379;49.022;12.148;2023-01-19T08:26:29;-1.20;99.90
792;DHT22;379;49.022;12.148;2023-01-19T08:28:57;-1.10;99.90
792;DHT22;379;49.022;12.148;2023-01-19T08:31:25;-1.10;99.90
792;DHT22;379;49.022;12.148;2023-01-19T08:33:53;-1.00;99.90
792;DHT22;379;49.022;12.148;2023-01-19T08:36:20;-0.90;99.90
792;DHT22;379;49.022;12.148;2023-01-19T08:38:49;-0.80;99.90
792;DHT22;379;49.022;12.148;2023-01-19T08:41:16;-0.80;99.90
792;DHT22;379;49.022;12.148;2023-01-19T08:43:42;-0.70;99.90
792;DHT22;379;49.022;12.148;2023-01-19T08:46:10;-0.60;99.90
792;DHT22;379;49.022;12.148;2023-01-19T08:48:37;-0.50;99.90
792;DHT22;379;49.022;12.148;2023-01-19T08:51:05;-0.40;99.90
792;DHT22;379;49.022;12.148;2023-01-19T08:53:32;-0.30;99.90
792;DHT22;379;49.022;12.148;2023-01-19T08:55:59;-0.20;99.90
792;DHT22;379;49.022;12.148;2023-01-19T08:58:26;-0.20;99.90
792;DHT22;379;49.022;12.148;2023-01-19T09:00:53;-0.20;99.90
792;DHT22;379;49.022;12.148;2023-01-19T09:03:20;-0.20;99.90
792;DHT22;379;49.022;12.148;2023-01-19T09:05:48;-0.40;99.90
792;DHT22;379;49.022;12.148;2023-01-19T09:08:16;-0.50;99.90
792;DHT22;379;49.022;12.148;2023-01-19T09:10:45;-0.60;99.90
792;DHT22;379;49.022;12.148;2023-01-19T09:13:12;-0.50;99.90
792;DHT22;379;49.022;12.148;2023-01-19T09:15:40;-0.40;99.90
792;DHT22;379;49.022;12.148;2023-01-19T09:18:09;-0.20;99.90
792;DHT22;379;49.022;12.148;2023-01-19T09:20:38;0.00;99.90
792;DHT22;379;49.022;12.148;2023-01-19T09:23:07;0.30;99.90
792;DHT22;379;49.022;12.148;2023-01-19T09:25:37;0.50;99.90
792;DHT22;379;49.022;12.148;2023-01-19T09:28:04;0.60;99.90
792;DHT22;379;49.022;12.148;2023-01-19T09:30:32;0.80;99.90
792;DHT22;379;49.022;12.148;2023-01-19T09:33:01;0.90;99.90
792;DHT22;379;49.022;12.148;2023-01-19T09:35:29;1.00;99.90
792;DHT22;379;49.022;12.148;2023-01-19T09:37:56;1.00;99.90
792;DHT22;379;49.022;12.148;2023-01-19T09:40:23;1.00;99.70
792;DHT22;379;49.022;12.148;2023-01-19T09:42:54;1.00;99.00
792;DHT22;379;49.022;12.148;2023-01-19T09:45:29;1.00;98.90
792;DHT22;379;49.022;12.148;2023-01-19T09:47:57;1.00;98.70
792;DHT22;379;49.022;12.148;2023-01-19T09:50:26;1.00;98.60
792;DHT22;379;49.022;12.148;2023-01-19T09:52:56;1.10;99.00
792;DHT22;379;49.022;12.148;2023-01-19T09:55:26;1.20;98.50
792;DHT22;379;49.022;12.148;2023-01-19T09:57:54;1.40;98.50
792;DHT22;379;49.022;12.148;2023-01-19T10:00:21;1.50;98.30
792;DHT22;379;49.022;12.148;2023-01-19T10:02:54;1.60;98.10
792;DHT22;379;49.022;12.148;2023-01-19T10:05:27;1.70;97.50
792;DHT22;379;49.022;12.148;2023-01-19T10:08:12;1.90;97.50
792;DHT22;379;49.022;12.148;2023-01-19T10:10:45;2.00;96.70
792;DHT22;379;49.022;12.148;2023-01-19T10:13:20;2.10;96.10
792;DHT22;379;49.022;12.148;2023-01-19T10:15:56;2.20;95.80
792;DHT22;379;49.022;12.148;2023-01-19T10:18:25;2.30;95.10
792;DHT22;379;49.022;12.148;2023-01-19T10:21:02;2.30;94.70
792;DHT22;379;49.022;12.148;2023-01-19T10:23:40;2.40;94.50
792;DHT22;379;49.022;12.148;2023-01-19T10:26:14;2.40;93.80
792;DHT22;379;49.022;12.148;2023-01-19T10:28:44;2.40;93.30
792;DHT22;379;49.022;12.148;2023-01-19T10:31:12;2.40;92.80
792;DHT22;379;49.022;12.148;2023-01-19T10:33:39;2.50;92.40
792;DHT22;379;49.022;12.148;2023-01-19T10:36:16;2.50;92.20
792;DHT22;379;49.022;12.148;2023-01-19T10:38:43;2.70;92.20
792;DHT22;379;49.022;12.148;2023-01-19T10:41:16;2.80;91.80
792;DHT22;379;49.022;12.148;2023-01-19T10:43:46;2.80;91.50
792;DHT22;379;49.022;12.148;2023-01-19T10:46:22;2.80;91.30
792;DHT22;379;49.022;12.148;2023-01-19T10:48:53;2.80;91.00
792;DHT22;379;49.022;12.148;2023-01-19T10:51:20;2.80;90.70
792;DHT22;379;49.022;12.148;2023-01-19T10:53:59;2.70;90.40
792;DHT22;379;49.022;12.148;2023-01-19T10:56:29;2.50;90.20
792;DHT22;379;49.022;12.148;2023-01-19T10:58:59;2.30;90.20
792;DHT22;379;49.022;12.148;2023-01-19T11:01:27;2.10;90.10
792;DHT22;379;49.022;12.148;2023-01-19T11:03:55;2.00;90.10
792;DHT22;379;49.022;12.148;2023-01-19T11:06:30;1.90;90.40
792;DHT22;379;49.022;12.148;2023-01-19T11:09:15;1.80;90.70
792;DHT22;379;49.022;12.148;2023-01-19T11:11:44;1.80;90.80
792;DHT22;379;49.022;12.148;2023-01-19T11:14:15;1.80;90.70
792;DHT22;379;49.022;12.148;2023-01-19T11:16:46;1.90;90.80
792;DHT22;379;49.022;12.148;2023-01-19T11:19:24;2.00;90.90
792;DHT22;379;49.022;12.148;2023-01-19T11:21:51;2.00;90.90
792;DHT22;379;49.022;12.148;2023-01-19T11:24:19;2.10;90.80
792;DHT22;379;49.022;12.148;2023-01-19T11:26:48;2.20;90.80
792;DHT22;379;49.022;12.148;2023-01-19T11:29:19;2.30;90.40
792;DHT22;379;49.022;12.148;2023-01-19T11:31:48;2.50;90.40
792;DHT22;379;49.022;12.148;2023-01-19T11:34:24;2.60;88.90
792;DHT22;379;49.022;12.148;2023-01-19T11:36:55;2.70;87.80
792;DHT22;379;49.022;12.148;2023-01-19T11:39:24;2.70;88.70
792;DHT22;379;49.022;12.148;2023-01-19T11:41:54;2.70;88.40
792;DHT22;379;49.022;12.148;2023-01-19T11:44:24;2.70;88.50
792;DHT22;379;49.022;12.148;2023-01-19T11:46:55;2.70;88.40
792;DHT22;379;49.022;12.148;2023-01-19T11:49:28;2.80;88.00
792;DHT22;379;49.022;12.148;2023-01-19T11:52:01;2.70;87.50
792;DHT22;379;49.022;12.148;2023-01-19T11:54:33;2.80;87.10
792;DHT22;379;49.022;12.148;2023-01-19T11:57:09;2.90;87.80
792;DHT22;379;49.022;12.148;2023-01-19T11:59:39;3.10;87.60
792;DHT22;379;49.022;12.148;2023-01-19T12:02:15;3.30;86.40
792;DHT22;379;49.022;12.148;2023-01-19T12:04:45;3.40;85.80
792;DHT22;379;49.022;12.148;2023-01-19T12:07:21;3.50;85.40
792;DHT22;379;49.022;12.148;2023-01-19T12:09:52;3.50;85.00
792;DHT22;379;49.022;12.148;2023-01-19T12:12:25;3.40;84.80
792;DHT22;379;49.022;12.148;2023-01-19T12:14:58;3.40;84.60
792;DHT22;379;49.022;12.148;2023-01-19T12:17:27;3.40;84.30
792;DHT22;379;49.022;12.148;2023-01-19T12:19:59;3.40;84.20
792;DHT22;379;49.022;12.148;2023-01-19T12:22:33;3.50;84.10
792;DHT22;379;49.022;12.148;2023-01-19T12:25:09;3.50;82.90
792;DHT22;379;49.022;12.148;2023-01-19T12:27:40;3.60;82.80
792;DHT22;379;49.022;12.148;2023-01-19T12:30:16;3.50;81.60
792;DHT22;379;49.022;12.148;2023-01-19T12:32:44;3.50;81.50
792;DHT22;379;49.022;12.148;2023-01-19T12:41:22;3.40;81.00
792;DHT22;379;49.022;12.148;2023-01-19T12:44:14;3.30;81.20
792;DHT22;379;49.022;12.148;2023-01-19T12:46:45;3.20;81.10
792;DHT22;379;49.022;12.148;2023-01-19T12:49:21;3.20;81.20
792;DHT22;379;49.022;12.148;2023-01-19T12:51:51;3.20;81.30
792;DHT22;379;49.022;12.148;2023-01-19T12:54:25;3.40;81.60
792;DHT22;379;49.022;12.148;2023-01-19T12:56:57;3.50;81.30
792;DHT22;379;49.022;12.148;2023-01-19T12:59:26;3.60;80.70
792;DHT22;379;49.022;12.148;2023-01-19T13:05:17;3.70;77.80
792;DHT22;379;49.022;12.148;2023-01-19T13:08:13;3.70;77.40
792;DHT22;379;49.022;12.148;2023-01-19T13:19:43;3.20;76.60
792;DHT22;379;49.022;12.148;2023-01-19T13:25:30;2.90;75.80
792;DHT22;379;49.022;12.148;2023-01-19T13:27:58;2.80;76.50
792;DHT22;379;49.022;12.148;2023-01-19T13:30:27;2.70;77.40
792;DHT22;379;49.022;12.148;2023-01-19T13:32:56;2.60;78.10
792;DHT22;379;49.022;12.148;2023-01-19T13:35:26;2.60;78.40
792;DHT22;379;49.022;12.148;2023-01-19T13:37:54;2.50;78.60
792;DHT22;379;49.022;12.148;2023-01-19T13:40:23;2.60;78.90
792;DHT22;379;49.022;12.148;2023-01-19T13:42:53;2.60;78.90
792;DHT22;379;49.022;12.148;2023-01-19T13:45:29;2.50;79.00
792;DHT22;379;49.022;12.148;2023-01-19T13:47:59;2.50;79.20
792;DHT22;379;49.022;12.148;2023-01-19T13:50:27;2.50;79.50
792;DHT22;379;49.022;12.148;2023-01-19T13:52:54;2.40;79.40
792;DHT22;379;49.022;12.148;2023-01-19T13:55:24;2.40;79.70
792;DHT22;379;49.022;12.148;2023-01-19T13:57:52;2.30;79.70
792;DHT22;379;49.022;12.148;2023-01-19T14:00:21;2.30;79.90
792;DHT22;379;49.022;12.148;2023-01-19T14:02:56;2.20;80.20
792;DHT22;379;49.022;12.148;2023-01-19T14:05:26;2.20;80.70
792;DHT22;379;49.022;12.148;2023-01-19T14:08:01;2.20;80.40
792;DHT22;379;49.022;12.148;2023-01-19T14:10:29;2.30;79.50
792;DHT22;379;49.022;12.148;2023-01-19T14:13:03;2.20;77.00
792;DHT22;379;49.022;12.148;2023-01-19T14:15:32;2.20;76.80
792;DHT22;379;49.022;12.148;2023-01-19T14:18:24;2.20;77.80
792;DHT22;379;49.022;12.148;2023-01-19T14:20:56;2.10;78.90
792;DHT22;379;49.022;12.148;2023-01-19T14:23:45;2.10;80.00
792;DHT22;379;49.022;12.148;2023-01-19T14:26:37;2.10;81.00
792;DHT22;379;49.022;12.148;2023-01-19T14:29:15;2.10;81.50
792;DHT22;379;49.022;12.148;2023-01-19T14:31:44;2.00;81.50
792;DHT22;379;49.022;12.148;2023-01-19T14:34:30;2.00;81.80
792;DHT22;379;49.022;12.148;2023-01-19T14:36:57;1.90;82.10
792;DHT22;379;49.022;12.148;2023-01-19T14:39:26;1.90;82.30
792;DHT22;379;49.022;12.148;2023-01-19T14:41:56;1.80;82.90
792;DHT22;379;49.022;12.148;2023-01-19T14:44:28;1.80;83.00
792;DHT22;379;49.022;12.148;2023-01-19T14:46:56;1.70;83.50
792;DHT22;379;49.022;12.148;2023-01-19T14:49:29;1.70;83.80
792;DHT22;379;49.022;12.148;2023-01-19T14:51:58;1.60;84.00
792;DHT22;379;49.022;12.148;2023-01-19T14:54:29;1.60;84.20
792;DHT22;379;49.022;12.148;2023-01-19T14:56:57;1.50;84.30
792;DHT22;379;49.022;12.148;2023-01-19T14:59:25;1.50;84.60
792;DHT22;379;49.022;12.148;2023-01-19T15:01:52;1.50;85.10
792;DHT22;379;49.022;12.148;2023-01-19T15:04:19;1.40;85.30
792;DHT22;379;49.022;12.148;2023-01-19T15:06:45;1.40;85.50
792;DHT22;379;49.022;12.148;2023-01-19T15:09:13;1.30;85.50
792;DHT22;379;49.022;12.148;2023-01-19T15:11:41;1.30;85.60
792;DHT22;379;49.022;12.148;2023-01-19T15:14:10;1.30;86.00
792;DHT22;379;49.022;12.148;2023-01-19T15:16:40;1.30;86.40
792;DHT22;379;49.022;12.148;2023-01-19T15:19:10;1.30;86.40
792;DHT22;379;49.022;12.148;2023-01-19T15:21:37;1.20;86.40
792;DHT22;379;49.022;12.148;2023-01-19T15:24:07;1.20;86.80
792;DHT22;379;49.022;12.148;2023-01-19T15:26:35;1.20;87.10
792;DHT22;379;49.022;12.148;2023-01-19T15:29:02;1.20;87.20
792;DHT22;379;49.022;12.148;2023-01-19T15:31:35;1.10;87.20
792;DHT22;379;49.022;12.148;2023-01-19T15:34:03;1.10;87.50
792;DHT22;379;49.022;12.148;2023-01-19T15:36:30;1.10;87.80
792;DHT22;379;49.022;12.148;2023-01-19T15:38:56;1.00;88.10
792;DHT22;379;49.022;12.148;2023-01-19T15:41:25;1.00;88.40
792;DHT22;379;49.022;12.148;2023-01-19T15:43:52;1.00;88.40
792;DHT22;379;49.022;12.148;2023-01-19T15:46:19;0.90;88.30
792;DHT22;379;49.022;12.148;2023-01-19T15:48:46;0.90;88.50
792;DHT22;379;49.022;12.148;2023-01-19T15:51:16;0.80;88.70
792;DHT22;379;49.022;12.148;2023-01-19T15:53:44;0.90;89.00
792;DHT22;379;49.022;12.148;2023-01-19T15:56:13;0.80;89.20
792;DHT22;379;49.022;12.148;2023-01-19T15:58:41;0.80;89.30
792;DHT22;379;49.022;12.148;2023-01-19T16:01:11;0.80;89.40
792;DHT22;379;49.022;12.148;2023-01-19T16:03:38;0.80;89.50
792;DHT22;379;49.022;12.148;2023-01-19T16:06:05;0.80;89.60
792;DHT22;379;49.022;12.148;2023-01-19T16:08:33;0.70;89.50
792;DHT22;379;49.022;12.148;2023-01-19T16:11:03;0.70;89.60
792;DHT22;379;49.022;12.148;2023-01-19T16:13:30;0.70;89.70
792;DHT22;379;49.022;12.148;2023-01-19T16:16:00;0.70;90.00
792;DHT22;379;49.022;12.148;2023-01-19T16:18:28;0.70;89.40
792;DHT22;379;49.022;12.148;2023-01-19T16:20:55;0.60;89.50
792;DHT22;379;49.022;12.148;2023-01-19T16:23:21;0.70;90.00
792;DHT22;379;49.022;12.148;2023-01-19T16:25:56;0.60;90.00
792;DHT22;379;49.022;12.148;2023-01-19T16:28:24;0.60;90.00
792;DHT22;379;49.022;12.148;2023-01-19T16:30:51;0.60;90.10
792;DHT22;379;49.022;12.148;2023-01-19T16:33:18;0.60;90.10
792;DHT22;379;49.022;12.148;2023-01-19T16:35:45;0.60;90.20
792;DHT22;379;49.022;12.148;2023-01-19T16:38:11;0.60;90.30
792;DHT22;379;49.022;12.148;2023-01-19T16:40:38;0.60;90.40
792;DHT22;379;49.022;12.148;2023-01-19T16:43:06;0.60;90.60
792;DHT22;379;49.022;12.148;2023-01-19T16:45:33;0.50;90.70
792;DHT22;379;49.022;12.148;2023-01-19T16:48:00;0.50;90.80
792;DHT22;379;49.022;12.148;2023-01-19T16:50:26;0.50;90.90
792;DHT22;379;49.022;12.148;2023-01-19T16:52:55;0.50;91.00
792;DHT22;379;49.022;12.148;2023-01-19T16:55:23;0.40;91.00
792;DHT22;379;49.022;12.148;2023-01-19T16:57:50;0.40;91.20
792;DHT22;379;49.022;12.148;2023-01-19T17:00:19;0.40;91.20
792;DHT22;379;49.022;12.148;2023-01-19T17:02:45;0.40;91.30
792;DHT22;379;49.022;12.148;2023-01-19T17:05:12;0.40;91.40
792;DHT22;379;49.022;12.148;2023-01-19T17:07:39;0.40;91.30